sensor_id;sensor_type;location;lat;lon;timestamp;P1;durP1;ratioP1;P2;durP2;ratioP2
32146;SDS011;32190;49.112;8.598;2022-12-16T00:03:14;12.25;;;5.07;;
32146;SDS011;32190;49.112;8.598;2022-12-16T00:09:04;8.25;;;5.93;;
32146;SDS011;32190;49.112;8.598;2022-12-16T00:14:55;6.45;;;4.70;;
32146;SDS011;32190;49.112;8.598;2022-12-16T00:20:50;7.32;;;4.55;;
32146;SDS011;32190;49.112;8.598;2022-12-16T00:26:43;5.97;;;5.10;;
32146;SDS011;32190;49.112;8.598;2022-12-16T00:32:33;6.97;;;4.80;;
32146;SDS011;32190;49.112;8.598;2022-12-16T00:38:24;8.32;;;5.90;;
32146;SDS011;32190;49.112;8.598;2022-12-16T00:44:16;5.88;;;4.38;;
32146;SDS011;32190;49.112;8.598;2022-12-16T00:50:07;8.10;;;5.70;;
32146;SDS011;32190;49.112;8.598;2022-12-16T00:56:02;7.45;;;5.47;;
32146;SDS011;32190;49.112;8.598;2022-12-16T01:01:57;8.95;;;6.35;;
32146;SDS011;32190;49.112;8.598;2022-12-16T01:07:47;7.53;;;5.60;;
32146;SDS011;32190;49.112;8.598;2022-12-16T01:13:38;6.28;;;4.78;;
32146;SDS011;32190;49.112;8.598;2022-12-16T01:19:28;7.30;;;4.95;;
32146;SDS011;32190;49.112;8.598;2022-12-16T01:25:19;9.15;;;5.50;;
32146;SDS011;32190;49.112;8.598;2022-12-16T01:31:10;8.38;;;5.30;;
32146;SDS011;32190;49.112;8.598;2022-12-16T01:37:01;8.35;;;5.68;;
32146;SDS011;32190;49.112;8.598;2022-12-16T01:42:51;9.05;;;6.05;;
32146;SDS011;32190;49.112;8.598;2022-12-16T01:55:10;7.43;;;5.03;;
32146;SDS011;32190;49.112;8.598;2022-12-16T02:01:01;7.00;;;5.28;;
32146;SDS011;32190;49.112;8.598;2022-12-16T02:06:52;6.63;;;5.03;;
32146;SDS011;32190;49.112;8.598;2022-12-16T02:12:55;8.10;;;5.65;;
32146;SDS011;32190;49.112;8.598;2022-12-16T02:18:59;8.85;;;5.50;;
32146;SDS011;32190;49.112;8.598;2022-12-16T02:25:27;6.55;;;4.95;;
32146;SDS011;32190;49.112;8.598;2022-12-16T02:31:37;9.15;;;5.70;;
32146;SDS011;32190;49.112;8.598;2022-12-16T02:37:47;7.25;;;5.47;;
32146;SDS011;32190;49.112;8.598;2022-12-16T02:44:02;7.22;;;4.70;;
32146;SDS011;32190;49.112;8.598;2022-12-16T02:49:57;7.63;;;4.82;;
32146;SDS011;32190;49.112;8.598;2022-12-16T03:01:53;7.55;;;5.50;;
32146;SDS011;32190;49.112;8.598;2022-12-16T03:07:56;7.85;;;4.78;;
32146;SDS011;32190;49.112;8.598;2022-12-16T03:13:49;6.20;;;4.75;;
32146;SDS011;32190;49.112;8.598;2022-12-16T03:19:42;7.38;;;4.57;;
32146;SDS011;32190;49.112;8.598;2022-12-16T03:25:40;7.45;;;4.90;;
32146;SDS011;32190;49.112;8.598;2022-12-16T03:31:41;9.00;;;5.18;;
32146;SDS011;32190;49.112;8.598;2022-12-16T03:37:37;9.60;;;5.43;;
32146;SDS011;32190;49.112;8.598;2022-12-16T03:43:29;6.05;;;4.07;;
32146;SDS011;32190;49.112;8.598;2022-12-16T03:49:20;7.47;;;5.40;;
32146;SDS011;32190;49.112;8.598;2022-12-16T03:55:12;6.32;;;4.65;;
32146;SDS011;32190;49.112;8.598;2022-12-16T04:01:03;6.82;;;4.90;;
32146;SDS011;32190;49.112;8.598;2022-12-16T04:06:53;8.73;;;5.05;;
32146;SDS011;32190;49.112;8.598;2022-12-16T04:13:02;7.35;;;5.50;;
32146;SDS011;32190;49.112;8.598;2022-12-16T04:19:17;7.38;;;4.72;;
32146;SDS011;32190;49.112;8.598;2022-12-16T04:25:33;7.45;;;4.75;;
32146;SDS011;32190;49.112;8.598;2022-12-16T04:31:24;6.75;;;4.35;;
32146;SDS011;32190;49.112;8.598;2022-12-16T04:37:15;5.10;;;3.88;;
32146;SDS011;32190;49.112;8.598;2022-12-16T04:43:24;5.78;;;4.35;;
32146;SDS011;32190;49.112;8.598;2022-12-16T04:49:33;6.68;;;4.68;;
32146;SDS011;32190;49.112;8.598;2022-12-16T04:55:42;7.82;;;4.70;;
32146;SDS011;32190;49.112;8.598;2022-12-16T05:01:52;5.55;;;3.92;;
32146;SDS011;32190;49.112;8.598;2022-12-16T05:08:01;8.52;;;5.13;;
32146;SDS011;32190;49.112;8.598;2022-12-16T05:14:10;7.63;;;4.85;;
32146;SDS011;32190;49.112;8.598;2022-12-16T05:20:19;7.47;;;4.93;;
32146;SDS011;32190;49.112;8.598;2022-12-16T05:26:28;8.95;;;5.45;;
32146;SDS011;32190;49.112;8.598;2022-12-16T05:32:37;7.00;;;5.32;;
32146;SDS011;32190;49.112;8.598;2022-12-16T05:38:48;7.78;;;4.80;;
32146;SDS011;32190;49.112;8.598;2022-12-16T05:44:57;6.13;;;4.68;;
32146;SDS011;32190;49.112;8.598;2022-12-16T05:51:07;8.55;;;4.18;;
32146;SDS011;32190;49.112;8.598;2022-12-16T05:57:16;7.22;;;4.57;;
32146;SDS011;32190;49.112;8.598;2022-12-16T06:03:25;5.60;;;4.07;;
32146;SDS011;32190;49.112;8.598;2022-12-16T06:09:34;5.60;;;3.78;;
32146;SDS011;32190;49.112;8.598;2022-12-16T06:15:44;3.92;;;3.13;;
32146;SDS011;32190;49.112;8.598;2022-12-16T06:21:54;6.82;;;4.72;;
32146;SDS011;32190;49.112;8.598;2022-12-16T06:28:03;6.35;;;4.15;;
32146;SDS011;32190;49.112;8.598;2022-12-16T06:34:12;7.68;;;4.40;;
32146;SDS011;32190;49.112;8.598;2022-12-16T06:40:21;7.25;;;5.07;;
32146;SDS011;32190;49.112;8.598;2022-12-16T06:46:30;9.38;;;5.22;;
32146;SDS011;32190;49.112;8.598;2022-12-16T06:52:41;7.32;;;4.25;;
32146;SDS011;32190;49.112;8.598;2022-12-16T06:58:51;6.55;;;4.13;;
32146;SDS011;32190;49.112;8.598;2022-12-16T07:05:00;5.97;;;4.30;;
32146;SDS011;32190;49.112;8.598;2022-12-16T07:11:09;7.43;;;4.20;;
32146;SDS011;32190;49.112;8.598;2022-12-16T07:17:18;6.82;;;3.92;;
32146;SDS011;32190;49.112;8.598;2022-12-16T07:23:27;6.25;;;5.00;;
32146;SDS011;32190;49.112;8.598;2022-12-16T07:29:36;6.10;;;4.18;;
32146;SDS011;32190;49.112;8.598;2022-12-16T07:35:45;6.15;;;4.95;;
32146;SDS011;32190;49.112;8.598;2022-12-16T07:41:55;6.40;;;4.03;;
32146;SDS011;32190;49.112;8.598;2022-12-16T07:48:04;7.18;;;4.18;;
32146;SDS011;32190;49.112;8.598;2022-12-16T07:54:13;6.18;;;4.53;;
32146;SDS011;32190;49.112;8.598;2022-12-16T08:00:22;5.10;;;3.67;;
32146;SDS011;32190;49.112;8.598;2022-12-16T08:06:32;5.00;;;3.72;;
32146;SDS011;32190;49.112;8.598;2022-12-16T08:12:41;5.63;;;3.50;;
32146;SDS011;32190;49.112;8.598;2022-12-16T08:18:50;4.68;;;3.50;;
32146;SDS011;32190;49.112;8.598;2022-12-16T08:24:59;6.70;;;4.32;;
32146;SDS011;32190;49.112;8.598;2022-12-16T08:31:08;6.50;;;3.63;;
32146;SDS011;32190;49.112;8.598;2022-12-16T08:37:17;4.45;;;3.50;;
32146;SDS011;32190;49.112;8.598;2022-12-16T08:43:29;4.65;;;3.40;;
32146;SDS011;32190;49.112;8.598;2022-12-16T08:49:38;5.32;;;3.67;;
32146;SDS011;32190;49.112;8.598;2022-12-16T08:55:48;5.30;;;3.38;;
32146;SDS011;32190;49.112;8.598;2022-12-16T09:01:57;8.10;;;5.07;;
32146;SDS011;32190;49.112;8.598;2022-12-16T09:08:06;6.95;;;4.80;;
32146;SDS011;32190;49.112;8.598;2022-12-16T09:14:15;7.07;;;3.95;;
32146;SDS011;32190;49.112;8.598;2022-12-16T09:20:24;6.85;;;4.70;;
32146;SDS011;32190;49.112;8.598;2022-12-16T09:26:34;5.47;;;4.53;;
32146;SDS011;32190;49.112;8.598;2022-12-16T09:32:43;5.50;;;4.13;;
32146;SDS011;32190;49.112;8.598;2022-12-16T09:38:52;6.22;;;4.40;;
32146;SDS011;32190;49.112;8.598;2022-12-16T09:45:04;4.90;;;4.22;;
32146;SDS011;32190;49.112;8.598;2022-12-16T09:51:22;6.18;;;4.47;;
32146;SDS011;32190;49.112;8.598;2022-12-16T09:57:33;6.22;;;4.68;;
32146;SDS011;32190;49.112;8.598;2022-12-16T10:03:45;4.45;;;3.75;;
32146;SDS011;32190;49.112;8.598;2022-12-16T10:29:49;8.77;;;5.63;;
32146;SDS011;32190;49.112;8.598;2022-12-16T10:35:57;7.50;;;4.60;;
32146;SDS011;32190;49.112;8.598;2022-12-16T10:42:12;6.15;;;4.25;;
32146;SDS011;32190;49.112;8.598;2022-12-16T10:48:34;6.82;;;5.35;;
32146;SDS011;32190;49.112;8.598;2022-12-16T10:54:50;7.78;;;4.15;;
32146;SDS011;32190;49.112;8.598;2022-12-16T11:01:24;6.63;;;4.90;;
32146;SDS011;32190;49.112;8.598;2022-12-16T11:07:49;7.88;;;5.07;;
32146;SDS011;32190;49.112;8.598;2022-12-16T11:14:17;6.80;;;4.95;;
32146;SDS011;32190;49.112;8.598;2022-12-16T11:20:31;6.47;;;4.78;;
32146;SDS011;32190;49.112;8.598;2022-12-16T11:26:48;6.32;;;4.35;;
32146;SDS011;32190;49.112;8.598;2022-12-16T11:33:05;6.10;;;4.63;;
32146;SDS011;32190;49.112;8.598;2022-12-16T11:39:30;7.75;;;5.00;;
32146;SDS011;32190;49.112;8.598;2022-12-16T11:45:41;5.35;;;4.00;;
32146;SDS011;32190;49.112;8.598;2022-12-16T11:51:55;6.88;;;5.20;;
32146;SDS011;32190;49.112;8.598;2022-12-16T12:04:32;6.28;;;4.65;;
32146;SDS011;32190;49.112;8.598;2022-12-16T12:10:45;9.23;;;5.25;;
32146;SDS011;32190;49.112;8.598;2022-12-16T12:23:34;7.63;;;4.60;;
32146;SDS011;32190;49.112;8.598;2022-12-16T12:30:02;5.05;;;4.15;;
32146;SDS011;32190;49.112;8.598;2022-12-16T12:42:52;7.50;;;4.97;;
32146;SDS011;32190;49.112;8.598;2022-12-16T12:49:06;4.90;;;4.05;;
32146;SDS011;32190;49.112;8.598;2022-12-16T13:02:05;4.57;;;3.80;;
32146;SDS011;32190;49.112;8.598;2022-12-16T13:08:44;8.60;;;4.65;;
32146;SDS011;32190;49.112;8.598;2022-12-16T13:21:47;4.70;;;3.83;;
32146;SDS011;32190;49.112;8.598;2022-12-16T13:27:56;4.78;;;4.03;;
32146;SDS011;32190;49.112;8.598;2022-12-16T13:34:07;4.75;;;3.83;;
32146;SDS011;32190;49.112;8.598;2022-12-16T13:47:15;4.95;;;3.70;;
32146;SDS011;32190;49.112;8.598;2022-12-16T13:59:54;4.82;;;3.30;;
32146;SDS011;32190;49.112;8.598;2022-12-16T14:06:04;4.63;;;3.03;;
32146;SDS011;32190;49.112;8.598;2022-12-16T14:12:24;6.13;;;4.05;;
32146;SDS011;32190;49.112;8.598;2022-12-16T14:18:51;7.55;;;4.47;;
32146;SDS011;32190;49.112;8.598;2022-12-16T14:25:21;4.10;;;3.70;;
32146;SDS011;32190;49.112;8.598;2022-12-16T14:31:36;5.28;;;3.33;;
32146;SDS011;32190;49.112;8.598;2022-12-16T14:37:46;4.90;;;3.47;;
32146;SDS011;32190;49.112;8.598;2022-12-16T14:43:56;6.60;;;4.43;;
32146;SDS011;32190;49.112;8.598;2022-12-16T14:50:17;4.53;;;3.60;;
32146;SDS011;32190;49.112;8.598;2022-12-16T14:56:29;4.38;;;3.38;;
32146;SDS011;32190;49.112;8.598;2022-12-16T15:02:39;4.55;;;3.30;;
32146;SDS011;32190;49.112;8.598;2022-12-16T15:08:59;4.40;;;3.42;;
32146;SDS011;32190;49.112;8.598;2022-12-16T15:15:15;5.63;;;4.37;;
32146;SDS011;32190;49.112;8.598;2022-12-16T15:21:40;5.93;;;4.60;;
32146;SDS011;32190;49.112;8.598;2022-12-16T15:27:53;8.00;;;4.72;;
32146;SDS011;32190;49.112;8.598;2022-12-16T15:40:31;4.15;;;3.35;;
32146;SDS011;32190;49.112;8.598;2022-12-16T15:46:41;5.38;;;4.15;;
32146;SDS011;32190;49.112;8.598;2022-12-16T15:59:53;5.15;;;3.10;;
32146;SDS011;32190;49.112;8.598;2022-12-16T16:06:08;6.00;;;3.72;;
32146;SDS011;32190;49.112;8.598;2022-12-16T16:12:26;6.43;;;4.13;;
32146;SDS011;32190;49.112;8.598;2022-12-16T16:18:35;3.35;;;3.03;;
32146;SDS011;32190;49.112;8.598;2022-12-16T16:24:44;3.83;;;3.47;;
32146;SDS011;32190;49.112;8.598;2022-12-16T16:30:53;4.32;;;3.45;;
32146;SDS011;32190;49.112;8.598;2022-12-16T16:37:07;6.43;;;4.13;;
32146;SDS011;32190;49.112;8.598;2022-12-16T16:43:21;5.47;;;4.00;;
32146;SDS011;32190;49.112;8.598;2022-12-16T16:49:33;6.85;;;4.05;;
32146;SDS011;32190;49.112;8.598;2022-12-16T16:55:45;5.60;;;4.05;;
32146;SDS011;32190;49.112;8.598;2022-12-16T17:01:54;6.07;;;4.15;;
32146;SDS011;32190;49.112;8.598;2022-12-16T17:08:04;4.90;;;3.60;;
32146;SDS011;32190;49.112;8.598;2022-12-16T17:14:17;5.85;;;3.95;;
32146;SDS011;32190;49.112;8.598;2022-12-16T17:20:27;5.28;;;3.42;;
32146;SDS011;32190;49.112;8.598;2022-12-16T17:26:42;3.95;;;3.20;;
32146;SDS011;32190;49.112;8.598;2022-12-16T17:32:52;4.82;;;3.25;;
32146;SDS011;32190;49.112;8.598;2022-12-16T17:39:02;3.95;;;2.92;;
32146;SDS011;32190;49.112;8.598;2022-12-16T17:45:14;5.22;;;3.25;;
32146;SDS011;32190;49.112;8.598;2022-12-16T17:51:24;5.15;;;3.60;;
32146;SDS011;32190;49.112;8.598;2022-12-16T17:57:33;5.07;;;3.30;;
32146;SDS011;32190;49.112;8.598;2022-12-16T18:03:42;2.63;;;2.33;;
32146;SDS011;32190;49.112;8.598;2022-12-16T18:09:51;3.53;;;2.70;;
32146;SDS011;32190;49.112;8.598;2022-12-16T18:16:00;3.95;;;3.20;;
32146;SDS011;32190;49.112;8.598;2022-12-16T18:22:09;4.05;;;2.65;;
32146;SDS011;32190;49.112;8.598;2022-12-16T18:28:18;3.72;;;3.05;;
32146;SDS011;32190;49.112;8.598;2022-12-16T18:34:27;3.58;;;2.80;;
32146;SDS011;32190;49.112;8.598;2022-12-16T18:40:37;3.13;;;2.33;;
32146;SDS011;32190;49.112;8.598;2022-12-16T18:46:46;2.60;;;2.40;;
32146;SDS011;32190;49.112;8.598;2022-12-16T18:52:55;4.55;;;3.30;;
32146;SDS011;32190;49.112;8.598;2022-12-16T18:59:04;3.55;;;3.15;;
32146;SDS011;32190;49.112;8.598;2022-12-16T19:05:13;4.03;;;3.00;;
32146;SDS011;32190;49.112;8.598;2022-12-16T19:11:23;3.88;;;3.20;;
32146;SDS011;32190;49.112;8.598;2022-12-16T19:17:32;3.42;;;2.78;;
32146;SDS011;32190;49.112;8.598;2022-12-16T19:23:41;3.55;;;2.60;;
32146;SDS011;32190;49.112;8.598;2022-12-16T19:29:50;3.85;;;3.42;;
32146;SDS011;32190;49.112;8.598;2022-12-16T19:55:08;3.38;;;3.08;;
32146;SDS011;32190;49.112;8.598;2022-12-16T20:33:42;5.85;;;3.28;;
32146;SDS011;32190;49.112;8.598;2022-12-16T20:39:51;3.85;;;3.05;;
32146;SDS011;32190;49.112;8.598;2022-12-16T20:52:09;3.83;;;2.90;;
32146;SDS011;32190;49.112;8.598;2022-12-16T20:58:19;4.07;;;3.20;;
32146;SDS011;32190;49.112;8.598;2022-12-16T21:04:28;3.65;;;3.05;;
32146;SDS011;32190;49.112;8.598;2022-12-16T21:10:38;3.85;;;3.13;;
32146;SDS011;32190;49.112;8.598;2022-12-16T21:16:47;3.90;;;3.38;;
32146;SDS011;32190;49.112;8.598;2022-12-16T21:23:00;4.28;;;3.17;;
32146;SDS011;32190;49.112;8.598;2022-12-16T21:29:15;4.60;;;3.63;;
32146;SDS011;32190;49.112;8.598;2022-12-16T21:35:24;4.68;;;3.35;;
32146;SDS011;32190;49.112;8.598;2022-12-16T21:41:34;4.93;;;3.38;;
32146;SDS011;32190;49.112;8.598;2022-12-16T21:47:43;5.90;;;3.75;;
32146;SDS011;32190;49.112;8.598;2022-12-16T21:53:52;4.07;;;3.20;;
32146;SDS011;32190;49.112;8.598;2022-12-16T22:00:01;4.18;;;3.13;;
32146;SDS011;32190;49.112;8.598;2022-12-16T22:06:11;6.15;;;3.70;;
32146;SDS011;32190;49.112;8.598;2022-12-16T22:12:20;4.47;;;3.95;;
32146;SDS011;32190;49.112;8.598;2022-12-16T22:18:29;4.53;;;3.33;;
32146;SDS011;32190;49.112;8.598;2022-12-16T22:24:38;3.20;;;2.92;;
32146;SDS011;32190;49.112;8.598;2022-12-16T22:30:54;5.60;;;3.28;;
32146;SDS011;32190;49.112;8.598;2022-12-16T22:37:04;4.72;;;3.67;;
32146;SDS011;32190;49.112;8.598;2022-12-16T22:43:13;5.28;;;3.80;;
32146;SDS011;32190;49.112;8.598;2022-12-16T22:49:22;3.70;;;3.40;;
32146;SDS011;32190;49.112;8.598;2022-12-16T22:55:31;5.35;;;4.00;;
32146;SDS011;32190;49.112;8.598;2022-12-16T23:01:40;4.05;;;3.33;;
32146;SDS011;32190;49.112;8.598;2022-12-16T23:07:50;3.50;;;2.83;;
32146;SDS011;32190;49.112;8.598;2022-12-16T23:14:16;5.28;;;3.40;;
32146;SDS011;32190;49.112;8.598;2022-12-16T23:20:26;4.40;;;3.97;;
32146;SDS011;32190;49.112;8.598;2022-12-16T23:26:35;5.15;;;4.18;;
32146;SDS011;32190;49.112;8.598;2022-12-16T23:32:44;7.22;;;4.43;;
32146;SDS011;32190;49.112;8.598;2022-12-16T23:38:54;6.55;;;4.18;;
32146;SDS011;32190;49.112;8.598;2022-12-16T23:45:03;5.35;;;4.00;;
32146;SDS011;32190;49.112;8.598;2022-12-16T23:51:13;4.90;;;3.85;;
32146;SDS011;32190;49.112;8.598;2022-12-16T23:57:23;5.47;;;4.60;;
